sensor_id;sensor_type;location;lat;lon;timestamp;P1;durP1;ratioP1;P2;durP2;ratioP2
26325;SDS011;14032;52.510;7.342;2022-08-11T00:01:51;5.43;;;3.60;;
26325;SDS011;14032;52.510;7.342;2022-08-11T00:04:20;5.72;;;3.33;;
26325;SDS011;14032;52.510;7.342;2022-08-11T00:06:48;7.85;;;3.47;;
26325;SDS011;14032;52.510;7.342;2022-08-11T00:09:17;4.30;;;3.45;;
26325;SDS011;14032;52.510;7.342;2022-08-11T00:11:49;4.53;;;3.30;;
26325;SDS011;14032;52.510;7.342;2022-08-11T00:16:42;5.03;;;3.95;;
26325;SDS011;14032;52.510;7.342;2022-08-11T00:19:20;6.07;;;3.73;;
26325;SDS011;14032;52.510;7.342;2022-08-11T00:21:48;5.65;;;3.70;;
26325;SDS011;14032;52.510;7.342;2022-08-11T00:24:14;5.20;;;4.03;;
26325;SDS011;14032;52.510;7.342;2022-08-11T00:26:46;6.55;;;4.20;;
26325;SDS011;14032;52.510;7.342;2022-08-11T00:29:13;5.53;;;3.97;;
26325;SDS011;14032;52.510;7.342;2022-08-11T00:31:42;8.68;;;4.47;;
26325;SDS011;14032;52.510;7.342;2022-08-11T00:34:19;6.65;;;4.30;;
26325;SDS011;14032;52.510;7.342;2022-08-11T00:36:56;4.65;;;4.10;;
26325;SDS011;14032;52.510;7.342;2022-08-11T00:39:27;6.80;;;4.13;;
26325;SDS011;14032;52.510;7.342;2022-08-11T01:12:13;7.22;;;5.50;;
26325;SDS011;14032;52.510;7.342;2022-08-11T01:21:14;7.97;;;5.07;;
26325;SDS011;14032;52.510;7.342;2022-08-11T01:32:36;7.07;;;5.40;;
26325;SDS011;14032;52.510;7.342;2022-08-11T01:38:25;6.30;;;5.20;;
26325;SDS011;14032;52.510;7.342;2022-08-11T01:44:46;6.70;;;5.10;;
26325;SDS011;14032;52.510;7.342;2022-08-11T01:47:35;9.52;;;5.65;;
26325;SDS011;14032;52.510;7.342;2022-08-11T01:50:36;9.18;;;6.47;;
26325;SDS011;14032;52.510;7.342;2022-08-11T01:55:39;5.93;;;5.32;;
26325;SDS011;14032;52.510;7.342;2022-08-11T02:03:37;6.97;;;5.20;;
26325;SDS011;14032;52.510;7.342;2022-08-11T02:06:20;10.70;;;6.20;;
26325;SDS011;14032;52.510;7.342;2022-08-11T02:17:58;8.30;;;5.57;;
26325;SDS011;14032;52.510;7.342;2022-08-11T02:20:47;9.38;;;6.55;;
26325;SDS011;14032;52.510;7.342;2022-08-11T02:23:49;15.25;;;8.20;;
26325;SDS011;14032;52.510;7.342;2022-08-11T02:34:50;9.13;;;5.93;;
26325;SDS011;14032;52.510;7.342;2022-08-11T02:37:36;9.07;;;6.00;;
26325;SDS011;14032;52.510;7.342;2022-08-11T02:40:23;11.27;;;6.40;;
26325;SDS011;14032;52.510;7.342;2022-08-11T02:43:07;9.48;;;6.40;;
26325;SDS011;14032;52.510;7.342;2022-08-11T02:46:00;8.45;;;6.07;;
26325;SDS011;14032;52.510;7.342;2022-08-11T02:48:55;7.88;;;6.18;;
26325;SDS011;14032;52.510;7.342;2022-08-11T02:52:15;9.95;;;6.63;;
26325;SDS011;14032;52.510;7.342;2022-08-11T02:55:22;7.47;;;6.18;;
26325;SDS011;14032;52.510;7.342;2022-08-11T03:01:07;8.23;;;6.47;;
26325;SDS011;14032;52.510;7.342;2022-08-11T03:04:00;8.35;;;6.40;;
26325;SDS011;14032;52.510;7.342;2022-08-11T03:06:38;7.32;;;5.93;;
26325;SDS011;14032;52.510;7.342;2022-08-11T03:12:04;8.40;;;6.60;;
26325;SDS011;14032;52.510;7.342;2022-08-11T03:15:10;10.13;;;7.25;;
26325;SDS011;14032;52.510;7.342;2022-08-11T03:25:56;10.60;;;6.88;;
26325;SDS011;14032;52.510;7.342;2022-08-11T03:33:49;11.32;;;7.30;;
26325;SDS011;14032;52.510;7.342;2022-08-11T03:42:09;11.25;;;7.70;;
26325;SDS011;14032;52.510;7.342;2022-08-11T03:45:03;10.30;;;7.20;;
26325;SDS011;14032;52.510;7.342;2022-08-11T03:47:56;10.25;;;7.68;;
26325;SDS011;14032;52.510;7.342;2022-08-11T03:50:41;12.68;;;8.00;;
26325;SDS011;14032;52.510;7.342;2022-08-11T04:07:16;10.73;;;7.80;;
26325;SDS011;14032;52.510;7.342;2022-08-11T04:10:12;10.63;;;8.25;;
26325;SDS011;14032;52.510;7.342;2022-08-11T04:16:15;9.02;;;7.40;;
26325;SDS011;14032;52.510;7.342;2022-08-11T04:33:47;9.15;;;7.63;;
26325;SDS011;14032;52.510;7.342;2022-08-11T04:36:45;10.13;;;7.60;;
26325;SDS011;14032;52.510;7.342;2022-08-11T04:39:55;11.15;;;7.45;;
26325;SDS011;14032;52.510;7.342;2022-08-11T04:46:03;9.30;;;8.27;;
26325;SDS011;14032;52.510;7.342;2022-08-11T05:07:50;10.70;;;8.15;;
26325;SDS011;14032;52.510;7.342;2022-08-11T05:11:04;10.80;;;7.88;;
26325;SDS011;14032;52.510;7.342;2022-08-11T05:13:44;10.90;;;7.72;;
26325;SDS011;14032;52.510;7.342;2022-08-11T05:16:32;10.32;;;7.57;;
26325;SDS011;14032;52.510;7.342;2022-08-11T05:19:31;12.30;;;7.97;;
26325;SDS011;14032;52.510;7.342;2022-08-11T05:22:16;15.27;;;8.38;;
26325;SDS011;14032;52.510;7.342;2022-08-11T05:25:06;11.30;;;7.40;;
26325;SDS011;14032;52.510;7.342;2022-08-11T05:30:55;11.48;;;8.15;;
26325;SDS011;14032;52.510;7.342;2022-08-11T05:33:49;10.55;;;7.45;;
26325;SDS011;14032;52.510;7.342;2022-08-11T05:36:44;9.73;;;7.45;;
26325;SDS011;14032;52.510;7.342;2022-08-11T05:39:17;8.82;;;7.55;;
26325;SDS011;14032;52.510;7.342;2022-08-11T05:42:05;18.75;;;8.05;;
26325;SDS011;14032;52.510;7.342;2022-08-11T05:44:51;26.35;;;8.23;;
26325;SDS011;14032;52.510;7.342;2022-08-11T05:47:39;20.50;;;8.88;;
26325;SDS011;14032;52.510;7.342;2022-08-11T05:50:24;15.60;;;7.20;;
26325;SDS011;14032;52.510;7.342;2022-08-11T05:53:11;11.85;;;7.30;;
26325;SDS011;14032;52.510;7.342;2022-08-11T05:55:57;14.93;;;7.13;;
26325;SDS011;14032;52.510;7.342;2022-08-11T05:58:48;14.30;;;6.95;;
26325;SDS011;14032;52.510;7.342;2022-08-11T06:01:23;13.57;;;7.18;;
26325;SDS011;14032;52.510;7.342;2022-08-11T06:03:51;14.13;;;6.97;;
26325;SDS011;14032;52.510;7.342;2022-08-11T06:06:38;10.07;;;6.25;;
26325;SDS011;14032;52.510;7.342;2022-08-11T06:11:52;12.88;;;7.22;;
26325;SDS011;14032;52.510;7.342;2022-08-11T06:14:21;9.40;;;6.38;;
26325;SDS011;14032;52.510;7.342;2022-08-11T06:16:49;14.68;;;7.20;;
26325;SDS011;14032;52.510;7.342;2022-08-11T06:19:18;10.93;;;6.97;;
26325;SDS011;14032;52.510;7.342;2022-08-11T06:21:47;7.18;;;5.93;;
26325;SDS011;14032;52.510;7.342;2022-08-11T06:24:16;12.45;;;6.80;;
26325;SDS011;14032;52.510;7.342;2022-08-11T06:26:49;11.88;;;6.50;;
26325;SDS011;14032;52.510;7.342;2022-08-11T06:29:17;11.93;;;6.23;;
26325;SDS011;14032;52.510;7.342;2022-08-11T06:34:46;8.35;;;5.50;;
26325;SDS011;14032;52.510;7.342;2022-08-11T06:40:03;7.07;;;5.38;;
26325;SDS011;14032;52.510;7.342;2022-08-11T06:42:50;8.75;;;5.80;;
26325;SDS011;14032;52.510;7.342;2022-08-11T06:45:50;11.68;;;5.68;;
26325;SDS011;14032;52.510;7.342;2022-08-11T06:48:21;15.15;;;6.20;;
26325;SDS011;14032;52.510;7.342;2022-08-11T06:50:53;10.32;;;6.15;;
26325;SDS011;14032;52.510;7.342;2022-08-11T06:53:38;13.90;;;5.13;;
26325;SDS011;14032;52.510;7.342;2022-08-11T06:56:10;9.90;;;5.15;;
26325;SDS011;14032;52.510;7.342;2022-08-11T06:58:57;6.85;;;4.85;;
26325;SDS011;14032;52.510;7.342;2022-08-11T07:07:15;8.10;;;4.60;;
26325;SDS011;14032;52.510;7.342;2022-08-11T07:15:53;9.05;;;3.83;;
26325;SDS011;14032;52.510;7.342;2022-08-11T07:18:24;6.53;;;4.30;;
26325;SDS011;14032;52.510;7.342;2022-08-11T07:21:26;5.13;;;2.80;;
26325;SDS011;14032;52.510;7.342;2022-08-11T07:24:16;4.78;;;3.13;;
26325;SDS011;14032;52.510;7.342;2022-08-11T07:27:03;9.73;;;4.35;;
26325;SDS011;14032;52.510;7.342;2022-08-11T07:29:51;6.65;;;3.45;;
26325;SDS011;14032;52.510;7.342;2022-08-11T07:32:29;8.93;;;2.80;;
26325;SDS011;14032;52.510;7.342;2022-08-11T07:35:01;5.93;;;2.80;;
26325;SDS011;14032;52.510;7.342;2022-08-11T07:37:40;5.03;;;2.30;;
26325;SDS011;14032;52.510;7.342;2022-08-11T07:40:09;4.82;;;2.50;;
26325;SDS011;14032;52.510;7.342;2022-08-11T07:42:35;6.68;;;2.67;;
26325;SDS011;14032;52.510;7.342;2022-08-11T07:45:05;7.93;;;2.30;;
26325;SDS011;14032;52.510;7.342;2022-08-11T07:47:51;16.02;;;2.72;;
26325;SDS011;14032;52.510;7.342;2022-08-11T07:50:41;4.03;;;2.15;;
26325;SDS011;14032;52.510;7.342;2022-08-11T07:53:28;7.18;;;1.92;;
26325;SDS011;14032;52.510;7.342;2022-08-11T07:55:55;3.15;;;2.28;;
26325;SDS011;14032;52.510;7.342;2022-08-11T07:58:24;4.68;;;1.98;;
26325;SDS011;14032;52.510;7.342;2022-08-11T08:01:10;3.33;;;1.80;;
26325;SDS011;14032;52.510;7.342;2022-08-11T08:03:57;2.97;;;1.77;;
26325;SDS011;14032;52.510;7.342;2022-08-11T08:06:42;5.63;;;1.42;;
26325;SDS011;14032;52.510;7.342;2022-08-11T08:09:27;5.10;;;1.50;;
26325;SDS011;14032;52.510;7.342;2022-08-11T08:12:17;3.38;;;1.45;;
26325;SDS011;14032;52.510;7.342;2022-08-11T08:15:08;3.60;;;1.52;;
26325;SDS011;14032;52.510;7.342;2022-08-11T08:17:54;3.55;;;1.33;;
26325;SDS011;14032;52.510;7.342;2022-08-11T08:20:23;2.97;;;1.10;;
26325;SDS011;14032;52.510;7.342;2022-08-11T08:22:57;2.47;;;1.20;;
26325;SDS011;14032;52.510;7.342;2022-08-11T08:25:25;4.53;;;1.30;;
26325;SDS011;14032;52.510;7.342;2022-08-11T08:27:57;3.83;;;1.30;;
26325;SDS011;14032;52.510;7.342;2022-08-11T08:30:24;7.60;;;1.38;;
26325;SDS011;14032;52.510;7.342;2022-08-11T08:33:14;3.17;;;1.10;;
26325;SDS011;14032;52.510;7.342;2022-08-11T08:35:40;4.25;;;1.40;;
26325;SDS011;14032;52.510;7.342;2022-08-11T08:38:08;2.58;;;1.35;;
26325;SDS011;14032;52.510;7.342;2022-08-11T08:40:34;5.63;;;1.42;;
26325;SDS011;14032;52.510;7.342;2022-08-11T08:43:02;6.53;;;1.20;;
26325;SDS011;14032;52.510;7.342;2022-08-11T08:45:33;1.88;;;0.90;;
26325;SDS011;14032;52.510;7.342;2022-08-11T08:48:02;8.45;;;1.50;;
26325;SDS011;14032;52.510;7.342;2022-08-11T08:50:33;2.33;;;1.15;;
26325;SDS011;14032;52.510;7.342;2022-08-11T08:53:20;7.55;;;1.27;;
26325;SDS011;14032;52.510;7.342;2022-08-11T08:55:53;2.38;;;1.02;;
26325;SDS011;14032;52.510;7.342;2022-08-11T08:58:21;2.17;;;1.00;;
26325;SDS011;14032;52.510;7.342;2022-08-11T09:00:49;4.53;;;1.20;;
26325;SDS011;14032;52.510;7.342;2022-08-11T09:03:18;2.55;;;0.95;;
26325;SDS011;14032;52.510;7.342;2022-08-11T09:05:45;1.58;;;0.90;;
26325;SDS011;14032;52.510;7.342;2022-08-11T09:08:12;8.38;;;1.98;;
26325;SDS011;14032;52.510;7.342;2022-08-11T09:10:43;4.65;;;1.50;;
26325;SDS011;14032;52.510;7.342;2022-08-11T09:13:10;2.30;;;1.08;;
26325;SDS011;14032;52.510;7.342;2022-08-11T09:15:38;4.57;;;1.05;;
26325;SDS011;14032;52.510;7.342;2022-08-11T09:18:04;2.30;;;1.00;;
26325;SDS011;14032;52.510;7.342;2022-08-11T09:20:31;5.65;;;1.00;;
26325;SDS011;14032;52.510;7.342;2022-08-11T09:23:00;1.75;;;0.95;;
26325;SDS011;14032;52.510;7.342;2022-08-11T09:25:46;2.03;;;1.00;;
26325;SDS011;14032;52.510;7.342;2022-08-11T09:28:32;2.67;;;1.13;;
26325;SDS011;14032;52.510;7.342;2022-08-11T09:31:00;5.03;;;1.00;;
26325;SDS011;14032;52.510;7.342;2022-08-11T09:33:28;4.18;;;1.35;;
26325;SDS011;14032;52.510;7.342;2022-08-11T09:35:55;2.10;;;0.93;;
26325;SDS011;14032;52.510;7.342;2022-08-11T09:38:23;3.15;;;1.08;;
26325;SDS011;14032;52.510;7.342;2022-08-11T09:41:09;1.80;;;1.13;;
26325;SDS011;14032;52.510;7.342;2022-08-11T09:43:38;2.42;;;1.30;;
26325;SDS011;14032;52.510;7.342;2022-08-11T09:46:25;3.13;;;1.45;;
26325;SDS011;14032;52.510;7.342;2022-08-11T09:48:54;3.38;;;1.23;;
26325;SDS011;14032;52.510;7.342;2022-08-11T09:51:23;5.30;;;1.30;;
26325;SDS011;14032;52.510;7.342;2022-08-11T09:53:50;3.75;;;1.55;;
26325;SDS011;14032;52.510;7.342;2022-08-11T09:56:21;3.00;;;1.27;;
26325;SDS011;14032;52.510;7.342;2022-08-11T09:59:07;5.68;;;1.10;;
26325;SDS011;14032;52.510;7.342;2022-08-11T10:01:44;5.95;;;1.20;;
26325;SDS011;14032;52.510;7.342;2022-08-11T10:04:14;2.70;;;1.10;;
26325;SDS011;14032;52.510;7.342;2022-08-11T10:06:43;2.10;;;1.23;;
26325;SDS011;14032;52.510;7.342;2022-08-11T10:09:45;2.75;;;1.20;;
26325;SDS011;14032;52.510;7.342;2022-08-11T10:14:55;16.00;;;2.28;;
26325;SDS011;14032;52.510;7.342;2022-08-11T10:17:45;2.35;;;0.98;;
26325;SDS011;14032;52.510;7.342;2022-08-11T10:20:33;4.43;;;1.00;;
26325;SDS011;14032;52.510;7.342;2022-08-11T10:23:01;3.25;;;1.35;;
26325;SDS011;14032;52.510;7.342;2022-08-11T10:25:46;5.57;;;1.73;;
26325;SDS011;14032;52.510;7.342;2022-08-11T10:28:31;2.95;;;1.00;;
26325;SDS011;14032;52.510;7.342;2022-08-11T10:30:59;2.78;;;1.20;;
26325;SDS011;14032;52.510;7.342;2022-08-11T10:33:46;3.58;;;1.30;;
26325;SDS011;14032;52.510;7.342;2022-08-11T10:36:35;9.05;;;2.75;;
26325;SDS011;14032;52.510;7.342;2022-08-11T10:39:07;5.18;;;1.15;;
26325;SDS011;14032;52.510;7.342;2022-08-11T10:41:34;1.90;;;1.00;;
26325;SDS011;14032;52.510;7.342;2022-08-11T10:44:19;3.78;;;1.15;;
26325;SDS011;14032;52.510;7.342;2022-08-11T10:46:47;3.20;;;1.27;;
26325;SDS011;14032;52.510;7.342;2022-08-11T10:49:32;3.92;;;1.35;;
26325;SDS011;14032;52.510;7.342;2022-08-11T10:51:57;7.60;;;1.60;;
26325;SDS011;14032;52.510;7.342;2022-08-11T10:57:27;2.55;;;1.05;;
26325;SDS011;14032;52.510;7.342;2022-08-11T11:00:14;1.73;;;1.15;;
26325;SDS011;14032;52.510;7.342;2022-08-11T11:02:43;4.25;;;1.38;;
26325;SDS011;14032;52.510;7.342;2022-08-11T11:10:19;4.82;;;1.20;;
26325;SDS011;14032;52.510;7.342;2022-08-11T11:12:45;2.58;;;1.20;;
26325;SDS011;14032;52.510;7.342;2022-08-11T11:15:35;4.88;;;1.55;;
26325;SDS011;14032;52.510;7.342;2022-08-11T11:18:24;5.43;;;1.10;;
26325;SDS011;14032;52.510;7.342;2022-08-11T11:21:10;2.80;;;1.35;;
26325;SDS011;14032;52.510;7.342;2022-08-11T11:23:40;2.22;;;1.13;;
26325;SDS011;14032;52.510;7.342;2022-08-11T11:34:36;4.32;;;1.20;;
26325;SDS011;14032;52.510;7.342;2022-08-11T11:37:24;4.13;;;1.42;;
26325;SDS011;14032;52.510;7.342;2022-08-11T11:39:50;2.67;;;1.30;;
26325;SDS011;14032;52.510;7.342;2022-08-11T11:42:18;5.57;;;1.90;;
26325;SDS011;14032;52.510;7.342;2022-08-11T11:44:45;3.17;;;1.23;;
26325;SDS011;14032;52.510;7.342;2022-08-11T11:47:11;2.80;;;1.15;;
26325;SDS011;14032;52.510;7.342;2022-08-11T11:49:40;3.83;;;1.45;;
26325;SDS011;14032;52.510;7.342;2022-08-11T11:52:07;3.00;;;1.05;;
26325;SDS011;14032;52.510;7.342;2022-08-11T11:54:38;2.17;;;1.10;;
26325;SDS011;14032;52.510;7.342;2022-08-11T11:57:05;1.77;;;1.10;;
26325;SDS011;14032;52.510;7.342;2022-08-11T11:59:51;4.60;;;1.38;;
26325;SDS011;14032;52.510;7.342;2022-08-11T12:02:36;3.33;;;1.20;;
26325;SDS011;14032;52.510;7.342;2022-08-11T12:05:04;4.13;;;1.20;;
26325;SDS011;14032;52.510;7.342;2022-08-11T12:07:32;2.55;;;1.27;;
26325;SDS011;14032;52.510;7.342;2022-08-11T12:10:18;5.35;;;2.42;;
26325;SDS011;14032;52.510;7.342;2022-08-11T12:12:44;2.33;;;1.30;;
26325;SDS011;14032;52.510;7.342;2022-08-11T12:17:57;4.53;;;1.30;;
26325;SDS011;14032;52.510;7.342;2022-08-11T12:20:24;1.40;;;0.70;;
26325;SDS011;14032;52.510;7.342;2022-08-11T12:22:50;2.60;;;0.85;;
26325;SDS011;14032;52.510;7.342;2022-08-11T12:25:35;1.88;;;0.95;;
26325;SDS011;14032;52.510;7.342;2022-08-11T12:28:20;1.83;;;1.15;;
26325;SDS011;14032;52.510;7.342;2022-08-11T12:30:48;4.28;;;1.67;;
26325;SDS011;14032;52.510;7.342;2022-08-11T12:33:17;1.67;;;0.90;;
26325;SDS011;14032;52.510;7.342;2022-08-11T12:35:43;1.70;;;1.10;;
26325;SDS011;14032;52.510;7.342;2022-08-11T12:38:11;3.75;;;1.38;;
26325;SDS011;14032;52.510;7.342;2022-08-11T12:40:40;2.20;;;1.45;;
26325;SDS011;14032;52.510;7.342;2022-08-11T12:43:26;3.30;;;1.27;;
26325;SDS011;14032;52.510;7.342;2022-08-11T12:46:15;2.67;;;1.08;;
26325;SDS011;14032;52.510;7.342;2022-08-11T12:48:47;2.28;;;1.10;;
26325;SDS011;14032;52.510;7.342;2022-08-11T12:51:36;4.75;;;1.10;;
26325;SDS011;14032;52.510;7.342;2022-08-11T12:54:30;2.95;;;1.00;;
26325;SDS011;14032;52.510;7.342;2022-08-11T12:57:06;3.15;;;0.93;;
26325;SDS011;14032;52.510;7.342;2022-08-11T13:00:02;6.78;;;1.38;;
26325;SDS011;14032;52.510;7.342;2022-08-11T13:02:48;1.92;;;0.90;;
26325;SDS011;14032;52.510;7.342;2022-08-11T13:05:33;3.20;;;0.98;;
26325;SDS011;14032;52.510;7.342;2022-08-11T13:08:01;2.55;;;1.40;;
26325;SDS011;14032;52.510;7.342;2022-08-11T13:10:28;2.58;;;0.98;;
26325;SDS011;14032;52.510;7.342;2022-08-11T13:13:14;3.28;;;1.20;;
26325;SDS011;14032;52.510;7.342;2022-08-11T13:15:42;3.20;;;1.25;;
26325;SDS011;14032;52.510;7.342;2022-08-11T13:18:10;3.13;;;1.08;;
26325;SDS011;14032;52.510;7.342;2022-08-11T13:20:39;3.05;;;1.15;;
26325;SDS011;14032;52.510;7.342;2022-08-11T13:23:05;2.13;;;1.05;;
26325;SDS011;14032;52.510;7.342;2022-08-11T13:25:31;3.35;;;1.00;;
26325;SDS011;14032;52.510;7.342;2022-08-11T13:27:58;1.77;;;0.93;;
26325;SDS011;14032;52.510;7.342;2022-08-11T13:30:25;6.05;;;1.20;;
26325;SDS011;14032;52.510;7.342;2022-08-11T13:33:13;3.13;;;1.27;;
26325;SDS011;14032;52.510;7.342;2022-08-11T13:35:41;3.00;;;1.20;;
26325;SDS011;14032;52.510;7.342;2022-08-11T13:38:09;3.10;;;1.40;;
26325;SDS011;14032;52.510;7.342;2022-08-11T13:40:38;5.63;;;1.58;;
26325;SDS011;14032;52.510;7.342;2022-08-11T13:43:05;4.65;;;1.27;;
26325;SDS011;14032;52.510;7.342;2022-08-11T13:45:32;5.70;;;1.35;;
26325;SDS011;14032;52.510;7.342;2022-08-11T13:47:59;4.47;;;1.60;;
26325;SDS011;14032;52.510;7.342;2022-08-11T13:50:27;4.65;;;1.50;;
26325;SDS011;14032;52.510;7.342;2022-08-11T13:53:15;1.80;;;0.90;;
26325;SDS011;14032;52.510;7.342;2022-08-11T13:55:45;2.88;;;1.00;;
26325;SDS011;14032;52.510;7.342;2022-08-11T13:58:11;2.55;;;1.20;;
26325;SDS011;14032;52.510;7.342;2022-08-11T14:00:38;3.03;;;1.35;;
26325;SDS011;14032;52.510;7.342;2022-08-11T14:03:08;1.88;;;1.10;;
26325;SDS011;14032;52.510;7.342;2022-08-11T14:05:37;2.70;;;1.10;;
26325;SDS011;14032;52.510;7.342;2022-08-11T14:08:08;4.57;;;1.10;;
26325;SDS011;14032;52.510;7.342;2022-08-11T14:10:37;5.65;;;1.27;;
26325;SDS011;14032;52.510;7.342;2022-08-11T14:13:06;1.85;;;1.15;;
26325;SDS011;14032;52.510;7.342;2022-08-11T14:15:57;3.42;;;0.98;;
26325;SDS011;14032;52.510;7.342;2022-08-11T14:18:29;2.13;;;1.00;;
26325;SDS011;14032;52.510;7.342;2022-08-11T14:21:02;6.72;;;1.30;;
26325;SDS011;14032;52.510;7.342;2022-08-11T14:23:49;3.80;;;1.00;;
26325;SDS011;14032;52.510;7.342;2022-08-11T14:26:19;1.92;;;1.00;;
26325;SDS011;14032;52.510;7.342;2022-08-11T14:28:53;3.90;;;1.10;;
26325;SDS011;14032;52.510;7.342;2022-08-11T14:31:26;2.88;;;1.20;;
26325;SDS011;14032;52.510;7.342;2022-08-11T14:33:54;2.42;;;1.00;;
26325;SDS011;14032;52.510;7.342;2022-08-11T14:36:24;5.10;;;1.13;;
26325;SDS011;14032;52.510;7.342;2022-08-11T14:38:52;4.40;;;1.10;;
26325;SDS011;14032;52.510;7.342;2022-08-11T14:41:19;7.50;;;1.10;;
26325;SDS011;14032;52.510;7.342;2022-08-11T14:44:05;2.90;;;1.10;;
26325;SDS011;14032;52.510;7.342;2022-08-11T14:46:52;4.43;;;1.05;;
26325;SDS011;14032;52.510;7.342;2022-08-11T14:49:35;6.70;;;1.30;;
26325;SDS011;14032;52.510;7.342;2022-08-11T14:52:03;5.43;;;1.08;;
26325;SDS011;14032;52.510;7.342;2022-08-11T14:54:31;3.28;;;1.30;;
26325;SDS011;14032;52.510;7.342;2022-08-11T14:57:16;4.38;;;1.40;;
26325;SDS011;14032;52.510;7.342;2022-08-11T14:59:42;2.88;;;1.13;;
26325;SDS011;14032;52.510;7.342;2022-08-11T15:02:12;6.47;;;1.20;;
26325;SDS011;14032;52.510;7.342;2022-08-11T15:04:57;4.55;;;1.30;;
26325;SDS011;14032;52.510;7.342;2022-08-11T15:07:25;4.25;;;1.02;;
26325;SDS011;14032;52.510;7.342;2022-08-11T15:09:58;5.55;;;1.20;;
26325;SDS011;14032;52.510;7.342;2022-08-11T15:12:29;3.53;;;1.35;;
26325;SDS011;14032;52.510;7.342;2022-08-11T15:14:55;2.90;;;1.20;;
26325;SDS011;14032;52.510;7.342;2022-08-11T15:17:40;1.67;;;0.80;;
26325;SDS011;14032;52.510;7.342;2022-08-11T15:20:14;2.38;;;1.10;;
26325;SDS011;14032;52.510;7.342;2022-08-11T15:23:00;2.90;;;1.17;;
26325;SDS011;14032;52.510;7.342;2022-08-11T15:25:48;6.90;;;1.02;;
26325;SDS011;14032;52.510;7.342;2022-08-11T15:28:19;2.10;;;1.10;;
26325;SDS011;14032;52.510;7.342;2022-08-11T15:31:06;2.45;;;1.30;;
26325;SDS011;14032;52.510;7.342;2022-08-11T15:33:50;3.03;;;1.17;;
26325;SDS011;14032;52.510;7.342;2022-08-11T15:36:44;2.88;;;1.08;;
26325;SDS011;14032;52.510;7.342;2022-08-11T15:39:32;4.88;;;1.10;;
26325;SDS011;14032;52.510;7.342;2022-08-11T15:42:03;3.30;;;1.05;;
26325;SDS011;14032;52.510;7.342;2022-08-11T15:44:55;3.00;;;1.02;;
26325;SDS011;14032;52.510;7.342;2022-08-11T15:47:49;2.40;;;0.90;;
26325;SDS011;14032;52.510;7.342;2022-08-11T15:50:21;3.67;;;0.93;;
26325;SDS011;14032;52.510;7.342;2022-08-11T15:56:02;4.75;;;1.00;;
26325;SDS011;14032;52.510;7.342;2022-08-11T15:58:40;2.08;;;0.90;;
26325;SDS011;14032;52.510;7.342;2022-08-11T16:01:29;1.17;;;0.75;;
26325;SDS011;14032;52.510;7.342;2022-08-11T16:04:19;3.33;;;1.33;;
26325;SDS011;14032;52.510;7.342;2022-08-11T16:14:57;2.88;;;1.15;;
26325;SDS011;14032;52.510;7.342;2022-08-11T16:17:45;2.92;;;0.90;;
26325;SDS011;14032;52.510;7.342;2022-08-11T16:20:24;2.85;;;0.95;;
26325;SDS011;14032;52.510;7.342;2022-08-11T16:22:52;2.05;;;1.10;;
26325;SDS011;14032;52.510;7.342;2022-08-11T16:25:22;2.35;;;0.98;;
26325;SDS011;14032;52.510;7.342;2022-08-11T16:27:50;2.58;;;1.00;;
26325;SDS011;14032;52.510;7.342;2022-08-11T16:30:19;2.05;;;0.93;;
26325;SDS011;14032;52.510;7.342;2022-08-11T16:32:48;4.50;;;0.70;;
26325;SDS011;14032;52.510;7.342;2022-08-11T16:35:18;6.80;;;1.20;;
26325;SDS011;14032;52.510;7.342;2022-08-11T16:38:06;4.72;;;1.00;;
26325;SDS011;14032;52.510;7.342;2022-08-11T16:40:53;2.95;;;1.10;;
26325;SDS011;14032;52.510;7.342;2022-08-11T16:43:21;3.78;;;1.00;;
26325;SDS011;14032;52.510;7.342;2022-08-11T16:46:08;3.22;;;1.13;;
26325;SDS011;14032;52.510;7.342;2022-08-11T16:48:54;6.90;;;1.40;;
26325;SDS011;14032;52.510;7.342;2022-08-11T16:51:22;4.68;;;0.80;;
26325;SDS011;14032;52.510;7.342;2022-08-11T16:53:49;3.88;;;1.30;;
26325;SDS011;14032;52.510;7.342;2022-08-11T16:56:17;3.08;;;1.52;;
26325;SDS011;14032;52.510;7.342;2022-08-11T16:58:53;2.17;;;0.80;;
26325;SDS011;14032;52.510;7.342;2022-08-11T17:01:39;5.68;;;1.00;;
26325;SDS011;14032;52.510;7.342;2022-08-11T17:04:20;3.33;;;1.30;;
26325;SDS011;14032;52.510;7.342;2022-08-11T17:07:11;1.48;;;0.80;;
26325;SDS011;14032;52.510;7.342;2022-08-11T17:09:57;3.78;;;1.08;;
26325;SDS011;14032;52.510;7.342;2022-08-11T17:12:45;7.72;;;4.65;;
26325;SDS011;14032;52.510;7.342;2022-08-11T17:15:37;8.40;;;2.80;;
26325;SDS011;14032;52.510;7.342;2022-08-11T17:18:26;2.15;;;1.23;;
26325;SDS011;14032;52.510;7.342;2022-08-11T17:21:14;4.22;;;0.88;;
26325;SDS011;14032;52.510;7.342;2022-08-11T17:23:44;3.08;;;1.60;;
26325;SDS011;14032;52.510;7.342;2022-08-11T17:26:15;2.90;;;1.30;;
26325;SDS011;14032;52.510;7.342;2022-08-11T17:28:56;1.67;;;1.00;;
26325;SDS011;14032;52.510;7.342;2022-08-11T17:31:25;2.13;;;0.90;;
26325;SDS011;14032;52.510;7.342;2022-08-11T17:34:11;4.63;;;1.20;;
26325;SDS011;14032;52.510;7.342;2022-08-11T17:36:56;4.23;;;1.10;;
26325;SDS011;14032;52.510;7.342;2022-08-11T17:39:25;2.85;;;1.10;;
26325;SDS011;14032;52.510;7.342;2022-08-11T17:41:53;1.92;;;0.80;;
26325;SDS011;14032;52.510;7.342;2022-08-11T17:44:39;2.10;;;1.02;;
26325;SDS011;14032;52.510;7.342;2022-08-11T17:47:24;5.25;;;1.10;;
26325;SDS011;14032;52.510;7.342;2022-08-11T17:50:10;4.70;;;1.20;;
26325;SDS011;14032;52.510;7.342;2022-08-11T17:52:37;4.72;;;1.23;;
26325;SDS011;14032;52.510;7.342;2022-08-11T17:55:24;2.45;;;1.10;;
26325;SDS011;14032;52.510;7.342;2022-08-11T17:58:08;2.30;;;1.20;;
26325;SDS011;14032;52.510;7.342;2022-08-11T18:00:53;5.75;;;1.20;;
26325;SDS011;14032;52.510;7.342;2022-08-11T18:03:20;9.52;;;1.17;;
26325;SDS011;14032;52.510;7.342;2022-08-11T18:05:56;1.65;;;1.00;;
26325;SDS011;14032;52.510;7.342;2022-08-11T18:08:27;2.97;;;0.98;;
26325;SDS011;14032;52.510;7.342;2022-08-11T18:11:13;3.28;;;1.00;;
26325;SDS011;14032;52.510;7.342;2022-08-11T18:13:58;3.70;;;1.30;;
26325;SDS011;14032;52.510;7.342;2022-08-11T18:16:46;3.42;;;1.30;;
26325;SDS011;14032;52.510;7.342;2022-08-11T18:19:31;2.13;;;1.07;;
26325;SDS011;14032;52.510;7.342;2022-08-11T18:22:17;2.15;;;1.30;;
26325;SDS011;14032;52.510;7.342;2022-08-11T18:25:09;2.42;;;1.20;;
26325;SDS011;14032;52.510;7.342;2022-08-11T18:27:57;3.45;;;1.38;;
26325;SDS011;14032;52.510;7.342;2022-08-11T18:30:44;3.42;;;1.10;;
26325;SDS011;14032;52.510;7.342;2022-08-11T18:33:36;3.00;;;1.13;;
26325;SDS011;14032;52.510;7.342;2022-08-11T18:36:25;1.85;;;1.17;;
26325;SDS011;14032;52.510;7.342;2022-08-11T18:39:18;3.28;;;1.40;;
26325;SDS011;14032;52.510;7.342;2022-08-11T18:42:09;4.80;;;1.30;;
26325;SDS011;14032;52.510;7.342;2022-08-11T18:44:57;7.93;;;1.38;;
26325;SDS011;14032;52.510;7.342;2022-08-11T18:47:46;2.83;;;1.25;;
26325;SDS011;14032;52.510;7.342;2022-08-11T18:50:33;1.48;;;0.95;;
26325;SDS011;14032;52.510;7.342;2022-08-11T18:53:19;3.33;;;1.30;;
26325;SDS011;14032;52.510;7.342;2022-08-11T18:58:49;1.83;;;0.95;;
26325;SDS011;14032;52.510;7.342;2022-08-11T19:01:35;4.70;;;1.20;;
26325;SDS011;14032;52.510;7.342;2022-08-11T19:04:20;3.95;;;1.10;;
26325;SDS011;14032;52.510;7.342;2022-08-11T19:07:05;3.77;;;1.40;;
26325;SDS011;14032;52.510;7.342;2022-08-11T19:09:51;2.72;;;1.30;;
26325;SDS011;14032;52.510;7.342;2022-08-11T19:12:38;5.60;;;1.40;;
26325;SDS011;14032;52.510;7.342;2022-08-11T19:15:25;2.95;;;1.50;;
26325;SDS011;14032;52.510;7.342;2022-08-11T19:18:12;5.57;;;1.75;;
26325;SDS011;14032;52.510;7.342;2022-08-11T19:20:59;7.15;;;1.50;;
26325;SDS011;14032;52.510;7.342;2022-08-11T19:23:46;5.60;;;1.33;;
26325;SDS011;14032;52.510;7.342;2022-08-11T19:26:34;4.30;;;1.58;;
26325;SDS011;14032;52.510;7.342;2022-08-11T19:29:20;4.15;;;1.88;;
26325;SDS011;14032;52.510;7.342;2022-08-11T19:32:05;3.58;;;1.50;;